sensor_id;sensor_type;location;lat;lon;timestamp;pressure;altitude;pressure_sealevel;temperature;humidity
9740;BME280;4909;42.680;26.324;2023-01-16T00:01:40;98706.94;;;8.56;93.39
9740;BME280;4909;42.680;26.324;2023-01-16T00:04:06;98704.16;;;8.59;93.23
9740;BME280;4909;42.680;26.324;2023-01-16T00:06:33;98702.91;;;8.69;93.06
9740;BME280;4909;42.680;26.324;2023-01-16T00:09:01;98698.13;;;8.55;92.33
9740;BME280;4909;42.680;26.324;2023-01-16T00:11:30;98707.38;;;8.67;92.41
9740;BME280;4909;42.680;26.324;2023-01-16T00:13:57;98702.97;;;8.67;92.50
9740;BME280;4909;42.680;26.324;2023-01-16T00:16:24;98706.25;;;8.74;91.55
9740;BME280;4909;42.680;26.324;2023-01-16T00:18:51;98690.34;;;8.51;91.78
9740;BME280;4909;42.680;26.324;2023-01-16T00:21:18;98688.75;;;8.47;92.12
9740;BME280;4909;42.680;26.324;2023-01-16T00:23:46;98691.75;;;8.36;93.24
9740;BME280;4909;42.680;26.324;2023-01-16T00:26:12;98689.53;;;8.49;93.51
9740;BME280;4909;42.680;26.324;2023-01-16T00:28:41;98685.72;;;8.33;93.32
9740;BME280;4909;42.680;26.324;2023-01-16T00:31:07;98683.97;;;8.32;93.23
9740;BME280;4909;42.680;26.324;2023-01-16T00:33:34;98685.88;;;8.26;93.07
9740;BME280;4909;42.680;26.324;2023-01-16T00:36:02;98676.25;;;8.24;93.23
9740;BME280;4909;42.680;26.324;2023-01-16T00:38:29;98680.72;;;8.48;92.62
9740;BME280;4909;42.680;26.324;2023-01-16T00:40:56;98686.47;;;8.61;92.32
9740;BME280;4909;42.680;26.324;2023-01-16T00:43:23;98677.66;;;8.36;92.56
9740;BME280;4909;42.680;26.324;2023-01-16T00:45:51;98680.69;;;8.23;92.78
9740;BME280;4909;42.680;26.324;2023-01-16T00:48:18;98674.28;;;8.04;93.08
9740;BME280;4909;42.680;26.324;2023-01-16T00:50:45;98629.09;;;7.87;93.71
9740;BME280;4909;42.680;26.324;2023-01-16T00:53:12;98679.03;;;8.21;93.51
9740;BME280;4909;42.680;26.324;2023-01-16T00:55:39;98679.38;;;8.10;92.76
9740;BME280;4909;42.680;26.324;2023-01-16T00:58:07;98668.78;;;8.12;92.54
9740;BME280;4909;42.680;26.324;2023-01-16T01:00:34;98670.69;;;8.07;92.68
9740;BME280;4909;42.680;26.324;2023-01-16T01:03:03;98664.97;;;8.19;92.86
9740;BME280;4909;42.680;26.324;2023-01-16T01:05:30;98668.06;;;8.07;92.96
9740;BME280;4909;42.680;26.324;2023-01-16T01:07:57;98667.59;;;7.94;92.96
9740;BME280;4909;42.680;26.324;2023-01-16T01:10:24;98667.16;;;8.08;92.52
9740;BME280;4909;42.680;26.324;2023-01-16T01:12:53;98664.38;;;8.11;93.02
9740;BME280;4909;42.680;26.324;2023-01-16T01:15:20;98663.63;;;8.07;93.11
9740;BME280;4909;42.680;26.324;2023-01-16T01:17:47;98663.28;;;8.18;92.72
9740;BME280;4909;42.680;26.324;2023-01-16T01:20:15;98660.22;;;8.30;92.11
9740;BME280;4909;42.680;26.324;2023-01-16T01:22:43;98649.66;;;8.30;92.04
9740;BME280;4909;42.680;26.324;2023-01-16T01:25:10;98656.47;;;8.37;92.72
9740;BME280;4909;42.680;26.324;2023-01-16T01:27:37;98659.72;;;8.44;92.47
9740;BME280;4909;42.680;26.324;2023-01-16T01:30:05;98656.19;;;8.18;92.49
9740;BME280;4909;42.680;26.324;2023-01-16T01:32:32;98653.91;;;8.34;92.74
9740;BME280;4909;42.680;26.324;2023-01-16T01:34:59;98648.78;;;8.29;92.98
9740;BME280;4909;42.680;26.324;2023-01-16T01:37:27;98641.66;;;8.32;91.90
9740;BME280;4909;42.680;26.324;2023-01-16T01:39:54;98651.91;;;8.41;91.70
9740;BME280;4909;42.680;26.324;2023-01-16T01:42:21;98646.22;;;8.26;92.56
9740;BME280;4909;42.680;26.324;2023-01-16T01:45:09;98633.16;;;7.97;92.61
9740;BME280;4909;42.680;26.324;2023-01-16T01:47:40;98636.00;;;7.91;93.12
9740;BME280;4909;42.680;26.324;2023-01-16T01:50:14;98627.91;;;7.96;93.65
9740;BME280;4909;42.680;26.324;2023-01-16T01:52:44;98587.53;;;7.66;94.00
9740;BME280;4909;42.680;26.324;2023-01-16T01:55:12;98629.78;;;7.92;94.02
9740;BME280;4909;42.680;26.324;2023-01-16T01:57:42;98621.56;;;7.75;94.62
9740;BME280;4909;42.680;26.324;2023-01-16T02:00:16;98612.88;;;7.71;94.23
9740;BME280;4909;42.680;26.324;2023-01-16T02:02:46;98628.22;;;7.86;93.69
9740;BME280;4909;42.680;26.324;2023-01-16T02:05:17;98625.72;;;7.82;93.72
9740;BME280;4909;42.680;26.324;2023-01-16T02:07:48;98611.50;;;7.86;94.12
9740;BME280;4909;42.680;26.324;2023-01-16T02:10:20;98616.53;;;7.94;93.18
9740;BME280;4909;42.680;26.324;2023-01-16T02:12:48;98617.16;;;8.00;93.26
9740;BME280;4909;42.680;26.324;2023-01-16T02:15:16;98609.38;;;7.97;93.75
9740;BME280;4909;42.680;26.324;2023-01-16T02:17:44;98596.84;;;8.02;93.81
9740;BME280;4909;42.680;26.324;2023-01-16T02:20:29;98595.81;;;7.81;93.23
9740;BME280;4909;42.680;26.324;2023-01-16T02:29:47;98607.16;;;7.59;93.61
9740;BME280;4909;42.680;26.324;2023-01-16T02:32:33;98614.88;;;7.65;94.37
9740;BME280;4909;42.680;26.324;2023-01-16T02:35:27;98607.41;;;7.77;94.38
9740;BME280;4909;42.680;26.324;2023-01-16T02:38:01;98610.75;;;7.82;93.52
9740;BME280;4909;42.680;26.324;2023-01-16T02:40:39;98600.94;;;7.86;93.47
9740;BME280;4909;42.680;26.324;2023-01-16T02:43:15;98595.44;;;7.92;93.23
9740;BME280;4909;42.680;26.324;2023-01-16T02:45:49;98591.56;;;8.02;92.70
9740;BME280;4909;42.680;26.324;2023-01-16T02:48:26;98591.03;;;8.17;92.64
9740;BME280;4909;42.680;26.324;2023-01-16T02:50:57;98585.47;;;8.25;91.85
9740;BME280;4909;42.680;26.324;2023-01-16T02:53:29;98589.19;;;8.44;91.23
9740;BME280;4909;42.680;26.324;2023-01-16T02:56:03;98587.41;;;8.45;90.09
9740;BME280;4909;42.680;26.324;2023-01-16T02:58:35;98594.47;;;8.44;90.44
9740;BME280;4909;42.680;26.324;2023-01-16T03:01:04;98597.19;;;8.18;91.46
9740;BME280;4909;42.680;26.324;2023-01-16T03:03:41;98601.28;;;8.02;91.42
9740;BME280;4909;42.680;26.324;2023-01-16T03:06:28;98584.50;;;8.27;91.08
9740;BME280;4909;42.680;26.324;2023-01-16T03:09:05;98587.78;;;8.34;90.70
9740;BME280;4909;42.680;26.324;2023-01-16T03:11:42;98596.72;;;8.05;91.74
9740;BME280;4909;42.680;26.324;2023-01-16T03:14:19;98585.22;;;8.08;91.90
9740;BME280;4909;42.680;26.324;2023-01-16T03:17:04;98591.50;;;8.28;91.57
9740;BME280;4909;42.680;26.324;2023-01-16T03:19:48;98591.88;;;7.93;92.27
9740;BME280;4909;42.680;26.324;2023-01-16T03:22:24;98584.88;;;7.92;93.15
9740;BME280;4909;42.680;26.324;2023-01-16T03:25:02;98584.97;;;8.14;93.49
9740;BME280;4909;42.680;26.324;2023-01-16T03:27:41;98589.47;;;8.12;93.15
9740;BME280;4909;42.680;26.324;2023-01-16T03:30:14;98583.72;;;7.99;92.97
9740;BME280;4909;42.680;26.324;2023-01-16T03:32:49;98576.56;;;7.78;94.60
9740;BME280;4909;42.680;26.324;2023-01-16T03:35:24;98573.47;;;7.90;94.93
9740;BME280;4909;42.680;26.324;2023-01-16T03:37:54;98571.88;;;8.11;93.71
9740;BME280;4909;42.680;26.324;2023-01-16T03:40:26;98567.88;;;7.74;94.62
9740;BME280;4909;42.680;26.324;2023-01-16T03:42:57;98565.88;;;8.06;94.21
9740;BME280;4909;42.680;26.324;2023-01-16T03:45:31;98562.66;;;8.22;93.73
9740;BME280;4909;42.680;26.324;2023-01-16T03:48:03;98561.63;;;8.26;92.77
9740;BME280;4909;42.680;26.324;2023-01-16T03:50:34;98565.50;;;8.41;93.17
9740;BME280;4909;42.680;26.324;2023-01-16T03:53:06;98546.72;;;8.24;92.42
9740;BME280;4909;42.680;26.324;2023-01-16T03:55:39;98560.25;;;8.15;93.03
9740;BME280;4909;42.680;26.324;2023-01-16T03:58:13;98554.25;;;8.36;92.13
9740;BME280;4909;42.680;26.324;2023-01-16T04:00:47;98550.22;;;8.00;93.20
9740;BME280;4909;42.680;26.324;2023-01-16T04:03:21;98547.78;;;8.18;92.62
9740;BME280;4909;42.680;26.324;2023-01-16T04:05:55;98550.16;;;8.26;92.57
9740;BME280;4909;42.680;26.324;2023-01-16T04:08:27;98515.25;;;7.93;92.78
9740;BME280;4909;42.680;26.324;2023-01-16T04:10:57;98536.13;;;8.24;92.63
9740;BME280;4909;42.680;26.324;2023-01-16T04:13:26;98505.84;;;8.09;93.27
9740;BME280;4909;42.680;26.324;2023-01-16T04:15:56;98527.97;;;8.07;93.22
9740;BME280;4909;42.680;26.324;2023-01-16T04:18:31;98531.66;;;8.03;93.42
9740;BME280;4909;42.680;26.324;2023-01-16T04:21:03;98528.75;;;8.09;92.58
9740;BME280;4909;42.680;26.324;2023-01-16T04:23:30;98529.28;;;8.18;92.68
9740;BME280;4909;42.680;26.324;2023-01-16T04:25:57;98516.88;;;8.20;92.51
9740;BME280;4909;42.680;26.324;2023-01-16T04:28:24;98519.78;;;8.38;91.67
9740;BME280;4909;42.680;26.324;2023-01-16T04:30:51;98531.66;;;8.51;91.54
9740;BME280;4909;42.680;26.324;2023-01-16T04:33:17;98529.69;;;8.56;91.21
9740;BME280;4909;42.680;26.324;2023-01-16T04:35:44;98526.56;;;8.68;90.98
9740;BME280;4909;42.680;26.324;2023-01-16T04:38:12;98526.88;;;8.82;90.42
9740;BME280;4909;42.680;26.324;2023-01-16T04:40:39;98527.75;;;8.83;90.35
9740;BME280;4909;42.680;26.324;2023-01-16T04:43:06;98529.72;;;8.78;89.84
9740;BME280;4909;42.680;26.324;2023-01-16T04:45:33;98525.34;;;8.77;90.50
9740;BME280;4909;42.680;26.324;2023-01-16T04:47:59;98523.50;;;8.79;89.01
9740;BME280;4909;42.680;26.324;2023-01-16T04:50:26;98524.03;;;8.65;89.59
9740;BME280;4909;42.680;26.324;2023-01-16T04:52:53;98520.22;;;8.72;89.87
9740;BME280;4909;42.680;26.324;2023-01-16T04:55:21;98527.03;;;8.56;88.90
9740;BME280;4909;42.680;26.324;2023-01-16T04:57:48;98530.88;;;8.47;90.21
9740;BME280;4909;42.680;26.324;2023-01-16T05:00:15;98535.72;;;8.36;90.66
9740;BME280;4909;42.680;26.324;2023-01-16T05:02:42;98530.56;;;8.08;91.73
9740;BME280;4909;42.680;26.324;2023-01-16T05:05:09;98530.44;;;8.11;91.95
9740;BME280;4909;42.680;26.324;2023-01-16T05:07:36;98534.16;;;8.31;92.22
9740;BME280;4909;42.680;26.324;2023-01-16T05:10:03;98532.25;;;8.34;92.12
9740;BME280;4909;42.680;26.324;2023-01-16T05:12:31;98526.88;;;8.12;92.93
9740;BME280;4909;42.680;26.324;2023-01-16T05:14:58;98524.47;;;7.81;95.75
9740;BME280;4909;42.680;26.324;2023-01-16T05:17:25;98514.72;;;7.83;97.13
9740;BME280;4909;42.680;26.324;2023-01-16T05:19:52;98511.38;;;8.03;96.69
9740;BME280;4909;42.680;26.324;2023-01-16T05:22:19;98503.72;;;8.19;96.46
9740;BME280;4909;42.680;26.324;2023-01-16T05:24:45;98511.38;;;7.78;97.51
9740;BME280;4909;42.680;26.324;2023-01-16T05:27:12;98497.22;;;7.79;98.63
9740;BME280;4909;42.680;26.324;2023-01-16T05:29:40;98501.97;;;7.95;98.16
9740;BME280;4909;42.680;26.324;2023-01-16T05:32:07;98490.75;;;8.13;97.21
9740;BME280;4909;42.680;26.324;2023-01-16T05:34:34;98501.31;;;8.13;96.98
9740;BME280;4909;42.680;26.324;2023-01-16T05:37:01;98493.25;;;8.16;96.76
9740;BME280;4909;42.680;26.324;2023-01-16T05:39:27;98491.09;;;7.79;98.23
9740;BME280;4909;42.680;26.324;2023-01-16T05:41:54;98492.59;;;7.86;98.41
9740;BME280;4909;42.680;26.324;2023-01-16T05:44:21;98506.84;;;7.82;98.42
9740;BME280;4909;42.680;26.324;2023-01-16T05:46:49;98452.13;;;7.61;98.76
9740;BME280;4909;42.680;26.324;2023-01-16T05:49:16;98510.06;;;7.90;98.65
9740;BME280;4909;42.680;26.324;2023-01-16T05:51:43;98497.19;;;7.81;99.02
9740;BME280;4909;42.680;26.324;2023-01-16T05:54:11;98502.66;;;7.75;99.24
9740;BME280;4909;42.680;26.324;2023-01-16T05:56:38;98493.66;;;7.80;99.19
9740;BME280;4909;42.680;26.324;2023-01-16T05:59:05;98495.34;;;7.83;99.76
9740;BME280;4909;42.680;26.324;2023-01-16T06:01:32;98504.94;;;7.85;99.38
9740;BME280;4909;42.680;26.324;2023-01-16T06:04:00;98496.69;;;7.95;99.37
9740;BME280;4909;42.680;26.324;2023-01-16T06:06:27;98495.78;;;7.96;98.26
9740;BME280;4909;42.680;26.324;2023-01-16T06:08:53;98493.59;;;7.83;98.27
9740;BME280;4909;42.680;26.324;2023-01-16T06:11:20;98495.22;;;7.86;99.62
9740;BME280;4909;42.680;26.324;2023-01-16T06:13:47;98496.63;;;7.96;99.13
9740;BME280;4909;42.680;26.324;2023-01-16T06:16:14;98485.44;;;7.65;99.53
9740;BME280;4909;42.680;26.324;2023-01-16T06:18:40;98498.38;;;7.72;100.00
9740;BME280;4909;42.680;26.324;2023-01-16T06:21:09;98489.16;;;7.84;99.62
9740;BME280;4909;42.680;26.324;2023-01-16T06:23:35;98486.53;;;7.84;99.31
9740;BME280;4909;42.680;26.324;2023-01-16T06:26:02;98479.00;;;7.72;99.21
9740;BME280;4909;42.680;26.324;2023-01-16T06:28:31;98475.56;;;7.70;98.93
9740;BME280;4909;42.680;26.324;2023-01-16T06:30:57;98481.38;;;7.79;99.44
9740;BME280;4909;42.680;26.324;2023-01-16T06:33:24;98477.38;;;7.69;99.77
9740;BME280;4909;42.680;26.324;2023-01-16T06:35:51;98476.03;;;7.56;100.00
9740;BME280;4909;42.680;26.324;2023-01-16T06:38:19;98484.97;;;7.78;100.00
9740;BME280;4909;42.680;26.324;2023-01-16T06:40:46;98491.91;;;7.81;99.14
9740;BME280;4909;42.680;26.324;2023-01-16T06:43:13;98492.88;;;7.54;100.00
9740;BME280;4909;42.680;26.324;2023-01-16T06:45:40;98479.31;;;7.64;100.00
9740;BME280;4909;42.680;26.324;2023-01-16T06:48:07;98494.13;;;7.93;100.00
9740;BME280;4909;42.680;26.324;2023-01-16T06:50:34;98490.13;;;7.81;99.50
9740;BME280;4909;42.680;26.324;2023-01-16T06:53:01;98479.03;;;7.95;100.00
9740;BME280;4909;42.680;26.324;2023-01-16T06:55:29;98475.28;;;8.02;98.73
9740;BME280;4909;42.680;26.324;2023-01-16T06:57:56;98475.28;;;8.02;98.81
9740;BME280;4909;42.680;26.324;2023-01-16T07:00:23;98472.41;;;8.08;98.77
9740;BME280;4909;42.680;26.324;2023-01-16T07:02:51;98476.53;;;8.15;97.61
9740;BME280;4909;42.680;26.324;2023-01-16T07:05:20;98477.19;;;8.22;96.97
9740;BME280;4909;42.680;26.324;2023-01-16T07:07:47;98478.13;;;8.19;97.90
9740;BME280;4909;42.680;26.324;2023-01-16T07:10:14;98473.31;;;8.32;95.91
9740;BME280;4909;42.680;26.324;2023-01-16T07:12:42;98464.69;;;8.02;96.68
9740;BME280;4909;42.680;26.324;2023-01-16T07:15:10;98487.16;;;8.14;96.86
9740;BME280;4909;42.680;26.324;2023-01-16T07:17:54;98487.06;;;8.17;96.98
9740;BME280;4909;42.680;26.324;2023-01-16T07:20:38;98480.00;;;8.17;97.05
9740;BME280;4909;42.680;26.324;2023-01-16T07:23:26;98479.81;;;8.22;97.16
9740;BME280;4909;42.680;26.324;2023-01-16T07:25:55;98461.84;;;8.08;97.15
9740;BME280;4909;42.680;26.324;2023-01-16T07:28:25;98474.53;;;8.22;97.19
9740;BME280;4909;42.680;26.324;2023-01-16T07:30:51;98473.16;;;8.12;97.59
9740;BME280;4909;42.680;26.324;2023-01-16T07:33:18;98477.53;;;7.65;98.88
9740;BME280;4909;42.680;26.324;2023-01-16T07:35:45;98470.06;;;7.76;98.88
9740;BME280;4909;42.680;26.324;2023-01-16T07:38:12;98465.69;;;7.75;99.18
9740;BME280;4909;42.680;26.324;2023-01-16T07:40:39;98465.44;;;7.82;99.48
9740;BME280;4909;42.680;26.324;2023-01-16T07:43:06;98469.34;;;7.96;99.33
9740;BME280;4909;42.680;26.324;2023-01-16T07:45:34;98460.25;;;7.79;98.67
9740;BME280;4909;42.680;26.324;2023-01-16T07:48:01;98459.63;;;7.96;98.75
9740;BME280;4909;42.680;26.324;2023-01-16T07:50:28;98457.97;;;7.94;98.97
9740;BME280;4909;42.680;26.324;2023-01-16T07:52:55;98457.91;;;7.95;97.48
9740;BME280;4909;42.680;26.324;2023-01-16T07:55:22;98451.34;;;7.82;98.69
9740;BME280;4909;42.680;26.324;2023-01-16T07:57:49;98450.31;;;7.86;98.66
9740;BME280;4909;42.680;26.324;2023-01-16T08:00:16;98448.50;;;8.11;97.22
9740;BME280;4909;42.680;26.324;2023-01-16T08:02:44;98440.41;;;8.16;97.33
9740;BME280;4909;42.680;26.324;2023-01-16T08:05:11;98438.97;;;8.07;96.86
9740;BME280;4909;42.680;26.324;2023-01-16T08:07:38;98446.59;;;7.92;97.36
9740;BME280;4909;42.680;26.324;2023-01-16T08:10:05;98444.66;;;7.97;97.25
9740;BME280;4909;42.680;26.324;2023-01-16T08:12:32;98440.97;;;8.01;96.25
9740;BME280;4909;42.680;26.324;2023-01-16T08:14:59;98438.38;;;7.99;96.95
9740;BME280;4909;42.680;26.324;2023-01-16T08:17:26;98432.06;;;8.03;96.98
9740;BME280;4909;42.680;26.324;2023-01-16T08:19:54;98437.53;;;7.99;97.00
9740;BME280;4909;42.680;26.324;2023-01-16T08:22:21;98430.88;;;7.89;97.64
9740;BME280;4909;42.680;26.324;2023-01-16T08:24:47;98428.47;;;7.81;97.87
9740;BME280;4909;42.680;26.324;2023-01-16T08:27:14;98423.13;;;7.84;97.95
9740;BME280;4909;42.680;26.324;2023-01-16T08:29:41;98420.13;;;7.93;98.48
9740;BME280;4909;42.680;26.324;2023-01-16T08:32:08;98415.53;;;7.98;97.35
9740;BME280;4909;42.680;26.324;2023-01-16T08:34:35;98426.63;;;8.08;97.24
9740;BME280;4909;42.680;26.324;2023-01-16T08:37:03;98408.03;;;8.09;96.86
9740;BME280;4909;42.680;26.324;2023-01-16T08:39:32;98402.53;;;8.15;96.53
9740;BME280;4909;42.680;26.324;2023-01-16T08:41:59;98404.13;;;8.19;95.74
9740;BME280;4909;42.680;26.324;2023-01-16T08:44:43;98402.78;;;8.33;95.19
9740;BME280;4909;42.680;26.324;2023-01-16T08:47:27;98390.47;;;8.32;95.38
9740;BME280;4909;42.680;26.324;2023-01-16T08:50:12;98388.63;;;8.55;95.59
9740;BME280;4909;42.680;26.324;2023-01-16T08:52:59;98399.13;;;8.57;94.63
9740;BME280;4909;42.680;26.324;2023-01-16T08:55:26;98390.28;;;8.36;94.78
9740;BME280;4909;42.680;26.324;2023-01-16T08:57:52;98375.78;;;8.46;95.24
9740;BME280;4909;42.680;26.324;2023-01-16T09:00:21;98387.72;;;8.56;94.26
9740;BME280;4909;42.680;26.324;2023-01-16T09:02:47;98377.13;;;8.56;94.61
9740;BME280;4909;42.680;26.324;2023-01-16T09:05:14;98372.66;;;8.79;93.55
9740;BME280;4909;42.680;26.324;2023-01-16T09:07:41;98377.38;;;8.92;93.19
9740;BME280;4909;42.680;26.324;2023-01-16T09:10:10;98362.50;;;8.90;93.53
9740;BME280;4909;42.680;26.324;2023-01-16T09:12:38;98366.31;;;9.04;92.04
9740;BME280;4909;42.680;26.324;2023-01-16T09:15:22;98363.81;;;9.20;91.21
9740;BME280;4909;42.680;26.324;2023-01-16T09:17:49;98367.22;;;9.24;91.03
9740;BME280;4909;42.680;26.324;2023-01-16T09:20:16;98366.47;;;9.40;90.49
9740;BME280;4909;42.680;26.324;2023-01-16T09:22:43;98364.56;;;9.44;91.06
9740;BME280;4909;42.680;26.324;2023-01-16T09:25:11;98320.47;;;9.43;90.53
9740;BME280;4909;42.680;26.324;2023-01-16T09:27:38;98346.81;;;9.46;90.75
9740;BME280;4909;42.680;26.324;2023-01-16T09:30:07;98344.06;;;9.29;91.38
9740;BME280;4909;42.680;26.324;2023-01-16T09:32:34;98348.41;;;9.30;91.71
9740;BME280;4909;42.680;26.324;2023-01-16T09:35:01;98324.03;;;8.81;93.42
9740;BME280;4909;42.680;26.324;2023-01-16T09:37:27;98345.22;;;9.01;92.73
9740;BME280;4909;42.680;26.324;2023-01-16T09:39:54;98332.28;;;8.95;93.08
9740;BME280;4909;42.680;26.324;2023-01-16T09:42:44;98328.88;;;8.92;92.42
9740;BME280;4909;42.680;26.324;2023-01-16T09:45:33;98327.69;;;8.79;94.46
9740;BME280;4909;42.680;26.324;2023-01-16T09:48:07;98321.06;;;8.68;94.45
9740;BME280;4909;42.680;26.324;2023-01-16T09:50:41;98313.72;;;8.33;96.77
9740;BME280;4909;42.680;26.324;2023-01-16T09:53:15;98316.06;;;8.41;97.30
9740;BME280;4909;42.680;26.324;2023-01-16T09:56:00;98317.28;;;8.54;97.07
9740;BME280;4909;42.680;26.324;2023-01-16T09:58:54;98306.38;;;8.82;95.17
9740;BME280;4909;42.680;26.324;2023-01-16T10:01:29;98310.28;;;8.73;94.09
9740;BME280;4909;42.680;26.324;2023-01-16T10:04:04;98312.47;;;8.84;94.58
9740;BME280;4909;42.680;26.324;2023-01-16T10:06:41;98312.81;;;8.96;94.05
9740;BME280;4909;42.680;26.324;2023-01-16T10:09:16;98291.19;;;8.45;95.47
9740;BME280;4909;42.680;26.324;2023-01-16T10:11:50;98307.56;;;8.54;96.26
9740;BME280;4909;42.680;26.324;2023-01-16T10:14:31;98298.84;;;8.72;96.41
9740;BME280;4909;42.680;26.324;2023-01-16T10:17:13;98294.16;;;8.99;95.02
9740;BME280;4909;42.680;26.324;2023-01-16T10:19:57;98299.56;;;8.96;93.82
9740;BME280;4909;42.680;26.324;2023-01-16T10:22:39;98266.28;;;8.50;95.39
9740;BME280;4909;42.680;26.324;2023-01-16T10:25:18;98271.78;;;8.46;95.55
9740;BME280;4909;42.680;26.324;2023-01-16T10:27:52;98253.16;;;8.27;96.33
9740;BME280;4909;42.680;26.324;2023-01-16T10:30:26;98282.13;;;8.30;97.49
9740;BME280;4909;42.680;26.324;2023-01-16T10:33:02;98276.63;;;8.35;96.70
9740;BME280;4909;42.680;26.324;2023-01-16T10:35:32;98266.34;;;8.49;95.78
9740;BME280;4909;42.680;26.324;2023-01-16T10:38:14;98261.22;;;8.66;95.22
9740;BME280;4909;42.680;26.324;2023-01-16T10:40:42;98259.75;;;8.79;93.93
9740;BME280;4909;42.680;26.324;2023-01-16T10:43:13;98247.13;;;8.86;93.85
9740;BME280;4909;42.680;26.324;2023-01-16T10:46:10;98245.06;;;8.72;92.52
9740;BME280;4909;42.680;26.324;2023-01-16T10:48:56;98241.53;;;8.71;93.50
9740;BME280;4909;42.680;26.324;2023-01-16T10:51:40;98230.25;;;8.68;92.98
9740;BME280;4909;42.680;26.324;2023-01-16T10:54:07;98220.13;;;8.78;93.07
9740;BME280;4909;42.680;26.324;2023-01-16T10:56:33;98215.53;;;9.01;93.38
9740;BME280;4909;42.680;26.324;2023-01-16T10:59:01;98221.38;;;9.28;91.84
9740;BME280;4909;42.680;26.324;2023-01-16T11:01:30;98221.00;;;9.36;90.05
9740;BME280;4909;42.680;26.324;2023-01-16T11:03:59;98191.06;;;9.15;90.69
9740;BME280;4909;42.680;26.324;2023-01-16T11:06:27;98219.00;;;9.22;90.38
9740;BME280;4909;42.680;26.324;2023-01-16T11:09:00;98212.69;;;9.06;89.13
9740;BME280;4909;42.680;26.324;2023-01-16T11:11:28;98211.91;;;9.23;90.07
9740;BME280;4909;42.680;26.324;2023-01-16T11:14:19;98198.47;;;9.27;89.39
9740;BME280;4909;42.680;26.324;2023-01-16T11:17:22;98196.91;;;9.42;89.27
9740;BME280;4909;42.680;26.324;2023-01-16T11:20:09;98191.31;;;9.67;88.68
9740;BME280;4909;42.680;26.324;2023-01-16T11:22:39;98192.19;;;9.84;87.57
9740;BME280;4909;42.680;26.324;2023-01-16T11:25:09;98136.84;;;9.42;87.37
9740;BME280;4909;42.680;26.324;2023-01-16T11:27:40;98174.53;;;9.66;88.14
9740;BME280;4909;42.680;26.324;2023-01-16T11:30:16;98179.91;;;9.65;87.43
9740;BME280;4909;42.680;26.324;2023-01-16T11:32:46;98172.09;;;9.80;87.67
9740;BME280;4909;42.680;26.324;2023-01-16T11:35:16;98174.84;;;9.96;87.08
9740;BME280;4909;42.680;26.324;2023-01-16T11:37:44;98172.50;;;9.90;86.93
9740;BME280;4909;42.680;26.324;2023-01-16T11:40:18;98158.66;;;9.66;88.08
9740;BME280;4909;42.680;26.324;2023-01-16T11:42:53;98169.09;;;9.50;87.77
9740;BME280;4909;42.680;26.324;2023-01-16T11:45:42;98155.75;;;9.53;87.93
9740;BME280;4909;42.680;26.324;2023-01-16T11:48:33;98157.28;;;9.76;87.62
9740;BME280;4909;42.680;26.324;2023-01-16T11:51:02;98151.91;;;9.78;87.98
9740;BME280;4909;42.680;26.324;2023-01-16T11:53:31;98158.72;;;10.00;87.54
9740;BME280;4909;42.680;26.324;2023-01-16T11:56:12;98142.59;;;9.69;87.53
9740;BME280;4909;42.680;26.324;2023-01-16T11:58:50;98135.50;;;9.70;88.18
9740;BME280;4909;42.680;26.324;2023-01-16T12:01:24;98142.34;;;9.56;88.91
9740;BME280;4909;42.680;26.324;2023-01-16T12:04:13;98135.44;;;9.71;87.60
9740;BME280;4909;42.680;26.324;2023-01-16T12:06:52;98134.56;;;9.71;87.80
9740;BME280;4909;42.680;26.324;2023-01-16T12:09:35;98116.25;;;9.66;87.32
9740;BME280;4909;42.680;26.324;2023-01-16T12:12:16;98140.53;;;9.57;88.30
9740;BME280;4909;42.680;26.324;2023-01-16T12:15:03;98141.22;;;9.43;88.61
9740;BME280;4909;42.680;26.324;2023-01-16T12:17:50;98142.16;;;9.24;88.90
9740;BME280;4909;42.680;26.324;2023-01-16T12:20:25;98143.13;;;9.21;89.82
9740;BME280;4909;42.680;26.324;2023-01-16T12:23:05;98138.44;;;9.28;88.94
9740;BME280;4909;42.680;26.324;2023-01-16T12:25:45;98144.22;;;9.36;88.67
9740;BME280;4909;42.680;26.324;2023-01-16T12:28:23;98133.09;;;9.46;88.98
9740;BME280;4909;42.680;26.324;2023-01-16T12:31:05;98145.97;;;9.54;87.66
9740;BME280;4909;42.680;26.324;2023-01-16T12:33:48;98130.50;;;9.64;87.38
9740;BME280;4909;42.680;26.324;2023-01-16T12:36:29;98136.69;;;9.27;87.13
9740;BME280;4909;42.680;26.324;2023-01-16T12:39:05;98146.16;;;9.32;87.77
9740;BME280;4909;42.680;26.324;2023-01-16T12:41:41;98134.53;;;9.35;88.90
9740;BME280;4909;42.680;26.324;2023-01-16T12:44:40;98108.56;;;9.43;87.87
9740;BME280;4909;42.680;26.324;2023-01-16T12:47:35;98129.03;;;9.58;87.26
9740;BME280;4909;42.680;26.324;2023-01-16T12:50:15;98131.69;;;9.75;87.11
9740;BME280;4909;42.680;26.324;2023-01-16T12:52:59;98123.97;;;9.88;86.47
9740;BME280;4909;42.680;26.324;2023-01-16T12:55:34;98111.28;;;9.94;85.60
9740;BME280;4909;42.680;26.324;2023-01-16T12:58:10;98097.06;;;9.78;85.21
9740;BME280;4909;42.680;26.324;2023-01-16T13:00:40;98105.03;;;9.78;85.29
9740;BME280;4909;42.680;26.324;2023-01-16T13:03:21;98094.28;;;9.81;85.15
9740;BME280;4909;42.680;26.324;2023-01-16T13:05:56;98105.44;;;9.88;84.34
9740;BME280;4909;42.680;26.324;2023-01-16T13:08:28;98100.63;;;9.96;83.92
9740;BME280;4909;42.680;26.324;2023-01-16T13:11:03;98093.84;;;9.90;83.43
9740;BME280;4909;42.680;26.324;2023-01-16T13:13:51;98099.28;;;10.04;83.15
9740;BME280;4909;42.680;26.324;2023-01-16T13:16:22;98090.72;;;10.17;82.37
9740;BME280;4909;42.680;26.324;2023-01-16T13:18:56;98086.75;;;10.25;83.40
9740;BME280;4909;42.680;26.324;2023-01-16T13:21:27;98086.78;;;10.41;83.47
9740;BME280;4909;42.680;26.324;2023-01-16T13:23:58;98096.34;;;10.45;82.18
9740;BME280;4909;42.680;26.324;2023-01-16T13:26:30;98092.16;;;10.57;81.99
9740;BME280;4909;42.680;26.324;2023-01-16T13:29:04;98088.41;;;10.61;82.98
9740;BME280;4909;42.680;26.324;2023-01-16T13:31:36;98099.31;;;10.72;81.97
9740;BME280;4909;42.680;26.324;2023-01-16T13:34:11;98095.03;;;10.69;80.85
9740;BME280;4909;42.680;26.324;2023-01-16T13:37:12;98088.88;;;10.69;81.33
9740;BME280;4909;42.680;26.324;2023-01-16T13:40:08;98080.97;;;10.67;81.64
9740;BME280;4909;42.680;26.324;2023-01-16T13:42:47;98076.81;;;10.79;81.08
9740;BME280;4909;42.680;26.324;2023-01-16T13:45:18;98072.88;;;10.86;80.89
9740;BME280;4909;42.680;26.324;2023-01-16T13:48:06;98043.56;;;10.72;81.11
9740;BME280;4909;42.680;26.324;2023-01-16T13:50:36;98062.34;;;10.84;80.85
9740;BME280;4909;42.680;26.324;2023-01-16T13:53:07;98063.44;;;10.65;80.82